sensor_id;sensor_type;location;lat;lon;timestamp;P1;durP1;ratioP1;P2;durP2;ratioP2
15915;SDS011;8057;47.830;-3.870;2023-07-22T00:01:55;5.07;;;4.67;;
15915;SDS011;8057;47.830;-3.870;2023-07-22T00:06:04;5.40;;;4.97;;
15915;SDS011;8057;47.830;-3.870;2023-07-22T00:10:13;6.93;;;5.90;;
15915;SDS011;8057;47.830;-3.870;2023-07-22T00:14:24;6.57;;;5.97;;
15915;SDS011;8057;47.830;-3.870;2023-07-22T00:18:34;5.47;;;4.97;;
15915;SDS011;8057;47.830;-3.870;2023-07-22T00:22:43;5.57;;;5.07;;
15915;SDS011;8057;47.830;-3.870;2023-07-22T00:26:52;5.87;;;5.30;;
15915;SDS011;8057;47.830;-3.870;2023-07-22T00:31:03;5.67;;;5.10;;
15915;SDS011;8057;47.830;-3.870;2023-07-22T00:35:13;5.63;;;5.13;;
15915;SDS011;8057;47.830;-3.870;2023-07-22T00:39:22;5.63;;;4.97;;
15915;SDS011;8057;47.830;-3.870;2023-07-22T00:43:31;6.07;;;5.57;;
15915;SDS011;8057;47.830;-3.870;2023-07-22T00:47:41;5.70;;;5.10;;
15915;SDS011;8057;47.830;-3.870;2023-07-22T00:51:51;5.20;;;4.70;;
15915;SDS011;8057;47.830;-3.870;2023-07-22T00:56:00;5.47;;;4.90;;
15915;SDS011;8057;47.830;-3.870;2023-07-22T01:00:10;5.97;;;5.47;;
15915;SDS011;8057;47.830;-3.870;2023-07-22T01:04:21;5.37;;;4.87;;
15915;SDS011;8057;47.830;-3.870;2023-07-22T01:08:32;6.07;;;5.47;;
15915;SDS011;8057;47.830;-3.870;2023-07-22T01:12:41;5.50;;;5.00;;
15915;SDS011;8057;47.830;-3.870;2023-07-22T01:16:51;6.73;;;5.27;;
15915;SDS011;8057;47.830;-3.870;2023-07-22T01:21:02;5.50;;;5.07;;
15915;SDS011;8057;47.830;-3.870;2023-07-22T01:25:13;6.40;;;5.67;;
15915;SDS011;8057;47.830;-3.870;2023-07-22T01:29:22;6.07;;;5.50;;
15915;SDS011;8057;47.830;-3.870;2023-07-22T01:33:31;5.33;;;4.93;;
15915;SDS011;8057;47.830;-3.870;2023-07-22T01:37:40;5.47;;;4.73;;
15915;SDS011;8057;47.830;-3.870;2023-07-22T01:41:51;6.87;;;5.23;;
15915;SDS011;8057;47.830;-3.870;2023-07-22T01:46:00;5.40;;;5.00;;
15915;SDS011;8057;47.830;-3.870;2023-07-22T01:50:10;5.53;;;4.87;;
15915;SDS011;8057;47.830;-3.870;2023-07-22T01:54:19;5.80;;;5.30;;
15915;SDS011;8057;47.830;-3.870;2023-07-22T01:58:30;5.37;;;4.87;;
15915;SDS011;8057;47.830;-3.870;2023-07-22T02:02:39;6.40;;;5.20;;
15915;SDS011;8057;47.830;-3.870;2023-07-22T02:06:48;5.50;;;4.90;;
15915;SDS011;8057;47.830;-3.870;2023-07-22T02:11:00;6.20;;;5.70;;
15915;SDS011;8057;47.830;-3.870;2023-07-22T02:15:13;8.20;;;5.43;;
15915;SDS011;8057;47.830;-3.870;2023-07-22T02:19:22;5.80;;;5.20;;
15915;SDS011;8057;47.830;-3.870;2023-07-22T02:23:31;6.20;;;5.60;;
15915;SDS011;8057;47.830;-3.870;2023-07-22T02:27:40;6.03;;;5.43;;
15915;SDS011;8057;47.830;-3.870;2023-07-22T02:31:51;6.33;;;5.10;;
15915;SDS011;8057;47.830;-3.870;2023-07-22T02:36:00;6.10;;;5.60;;
15915;SDS011;8057;47.830;-3.870;2023-07-22T02:40:10;5.73;;;5.20;;
15915;SDS011;8057;47.830;-3.870;2023-07-22T02:44:19;5.60;;;5.10;;
15915;SDS011;8057;47.830;-3.870;2023-07-22T02:48:30;5.90;;;5.40;;
15915;SDS011;8057;47.830;-3.870;2023-07-22T02:52:39;6.63;;;5.30;;
15915;SDS011;8057;47.830;-3.870;2023-07-22T02:56:48;6.10;;;5.60;;
15915;SDS011;8057;47.830;-3.870;2023-07-22T03:00:57;6.13;;;5.33;;
15915;SDS011;8057;47.830;-3.870;2023-07-22T03:05:08;5.40;;;4.90;;
15915;SDS011;8057;47.830;-3.870;2023-07-22T03:09:18;5.80;;;5.10;;
15915;SDS011;8057;47.830;-3.870;2023-07-22T03:13:28;6.47;;;5.90;;
15915;SDS011;8057;47.830;-3.870;2023-07-22T03:17:37;5.77;;;4.83;;
15915;SDS011;8057;47.830;-3.870;2023-07-22T03:21:50;5.40;;;4.90;;
15915;SDS011;8057;47.830;-3.870;2023-07-22T03:25:59;5.13;;;4.53;;
15915;SDS011;8057;47.830;-3.870;2023-07-22T03:30:10;6.40;;;4.83;;
15915;SDS011;8057;47.830;-3.870;2023-07-22T03:34:21;5.77;;;5.27;;
15915;SDS011;8057;47.830;-3.870;2023-07-22T03:38:32;5.47;;;4.97;;
15915;SDS011;8057;47.830;-3.870;2023-07-22T03:42:41;5.13;;;4.73;;
15915;SDS011;8057;47.830;-3.870;2023-07-22T03:46:50;6.93;;;5.37;;
15915;SDS011;8057;47.830;-3.870;2023-07-22T03:50:59;5.53;;;5.03;;
15915;SDS011;8057;47.830;-3.870;2023-07-22T03:55:27;5.47;;;4.90;;
15915;SDS011;8057;47.830;-3.870;2023-07-22T03:59:36;5.47;;;4.87;;
15915;SDS011;8057;47.830;-3.870;2023-07-22T04:03:45;6.40;;;5.37;;
15915;SDS011;8057;47.830;-3.870;2023-07-22T04:07:54;6.50;;;5.20;;
15915;SDS011;8057;47.830;-3.870;2023-07-22T04:12:05;5.83;;;5.33;;
15915;SDS011;8057;47.830;-3.870;2023-07-22T04:16:15;7.00;;;4.90;;
15915;SDS011;8057;47.830;-3.870;2023-07-22T04:20:24;5.17;;;4.67;;
15915;SDS011;8057;47.830;-3.870;2023-07-22T04:24:33;5.80;;;5.27;;
15915;SDS011;8057;47.830;-3.870;2023-07-22T04:28:43;5.37;;;4.87;;
15915;SDS011;8057;47.830;-3.870;2023-07-22T04:32:52;5.60;;;5.10;;
15915;SDS011;8057;47.830;-3.870;2023-07-22T04:37:02;6.03;;;5.13;;
15915;SDS011;8057;47.830;-3.870;2023-07-22T04:41:11;5.53;;;5.03;;
15915;SDS011;8057;47.830;-3.870;2023-07-22T04:45:23;5.80;;;5.30;;
15915;SDS011;8057;47.830;-3.870;2023-07-22T04:49:32;6.63;;;6.03;;
15915;SDS011;8057;47.830;-3.870;2023-07-22T04:53:41;4.63;;;4.23;;
15915;SDS011;8057;47.830;-3.870;2023-07-22T04:57:50;5.67;;;5.17;;
15915;SDS011;8057;47.830;-3.870;2023-07-22T05:02:01;6.00;;;5.40;;
15915;SDS011;8057;47.830;-3.870;2023-07-22T05:06:10;6.10;;;5.50;;
15915;SDS011;8057;47.830;-3.870;2023-07-22T05:10:19;5.90;;;5.40;;
15915;SDS011;8057;47.830;-3.870;2023-07-22T05:14:28;5.57;;;5.07;;
15915;SDS011;8057;47.830;-3.870;2023-07-22T05:18:38;4.50;;;4.17;;
15915;SDS011;8057;47.830;-3.870;2023-07-22T05:22:48;5.30;;;4.80;;
15915;SDS011;8057;47.830;-3.870;2023-07-22T05:26:57;9.53;;;5.63;;
15915;SDS011;8057;47.830;-3.870;2023-07-22T05:31:15;4.83;;;4.43;;
15915;SDS011;8057;47.830;-3.870;2023-07-22T05:35:26;4.57;;;4.17;;
15915;SDS011;8057;47.830;-3.870;2023-07-22T05:39:35;5.07;;;4.67;;
15915;SDS011;8057;47.830;-3.870;2023-07-22T05:43:44;6.47;;;4.80;;
15915;SDS011;8057;47.830;-3.870;2023-07-22T05:47:53;4.57;;;4.20;;
15915;SDS011;8057;47.830;-3.870;2023-07-22T05:52:05;4.87;;;3.97;;
15915;SDS011;8057;47.830;-3.870;2023-07-22T05:56:14;4.73;;;4.27;;
15915;SDS011;8057;47.830;-3.870;2023-07-22T06:00:23;4.90;;;4.40;;
15915;SDS011;8057;47.830;-3.870;2023-07-22T06:04:32;4.60;;;4.20;;
15915;SDS011;8057;47.830;-3.870;2023-07-22T06:08:43;4.67;;;3.93;;
15915;SDS011;8057;47.830;-3.870;2023-07-22T06:12:52;4.50;;;4.10;;
15915;SDS011;8057;47.830;-3.870;2023-07-22T06:17:01;4.57;;;3.80;;
15915;SDS011;8057;47.830;-3.870;2023-07-22T06:21:10;4.50;;;3.70;;
15915;SDS011;8057;47.830;-3.870;2023-07-22T06:25:21;4.77;;;4.23;;
15915;SDS011;8057;47.830;-3.870;2023-07-22T06:29:30;5.30;;;4.50;;
15915;SDS011;8057;47.830;-3.870;2023-07-22T06:33:39;5.90;;;5.27;;
15915;SDS011;8057;47.830;-3.870;2023-07-22T06:37:48;5.50;;;5.00;;
15915;SDS011;8057;47.830;-3.870;2023-07-22T06:41:59;6.73;;;5.07;;
15915;SDS011;8057;47.830;-3.870;2023-07-22T06:46:08;6.57;;;5.50;;
15915;SDS011;8057;47.830;-3.870;2023-07-22T06:50:17;6.10;;;5.50;;
15915;SDS011;8057;47.830;-3.870;2023-07-22T06:54:26;6.67;;;5.30;;
15915;SDS011;8057;47.830;-3.870;2023-07-22T06:58:37;5.47;;;4.97;;
15915;SDS011;8057;47.830;-3.870;2023-07-22T07:02:46;7.10;;;5.43;;
15915;SDS011;8057;47.830;-3.870;2023-07-22T07:06:55;5.87;;;5.20;;
15915;SDS011;8057;47.830;-3.870;2023-07-22T07:11:04;6.37;;;5.73;;
15915;SDS011;8057;47.830;-3.870;2023-07-22T07:15:15;6.87;;;5.30;;
15915;SDS011;8057;47.830;-3.870;2023-07-22T07:19:24;6.23;;;5.63;;
15915;SDS011;8057;47.830;-3.870;2023-07-22T07:23:33;7.27;;;5.83;;
15915;SDS011;8057;47.830;-3.870;2023-07-22T07:27:42;6.40;;;5.47;;
15915;SDS011;8057;47.830;-3.870;2023-07-22T07:31:52;7.13;;;5.67;;
15915;SDS011;8057;47.830;-3.870;2023-07-22T07:36:01;6.07;;;5.03;;
15915;SDS011;8057;47.830;-3.870;2023-07-22T07:40:12;8.37;;;5.17;;
15915;SDS011;8057;47.830;-3.870;2023-07-22T07:44:21;7.07;;;5.00;;
15915;SDS011;8057;47.830;-3.870;2023-07-22T07:48:32;6.07;;;5.57;;
15915;SDS011;8057;47.830;-3.870;2023-07-22T07:52:41;6.03;;;5.43;;
15915;SDS011;8057;47.830;-3.870;2023-07-22T07:56:50;6.37;;;5.17;;
15915;SDS011;8057;47.830;-3.870;2023-07-22T08:00:59;7.90;;;6.23;;
15915;SDS011;8057;47.830;-3.870;2023-07-22T08:05:10;6.40;;;5.70;;
15915;SDS011;8057;47.830;-3.870;2023-07-22T08:09:19;8.57;;;7.20;;
15915;SDS011;8057;47.830;-3.870;2023-07-22T08:13:28;7.57;;;6.80;;
15915;SDS011;8057;47.830;-3.870;2023-07-22T08:17:38;9.57;;;8.27;;
15915;SDS011;8057;47.830;-3.870;2023-07-22T08:21:49;8.63;;;7.73;;
15915;SDS011;8057;47.830;-3.870;2023-07-22T08:25:58;11.07;;;8.30;;
15915;SDS011;8057;47.830;-3.870;2023-07-22T08:30:08;9.50;;;8.50;;
15915;SDS011;8057;47.830;-3.870;2023-07-22T08:34:17;9.60;;;8.70;;
15915;SDS011;8057;47.830;-3.870;2023-07-22T08:38:28;10.20;;;9.40;;
15915;SDS011;8057;47.830;-3.870;2023-07-22T08:42:37;11.40;;;9.87;;
15915;SDS011;8057;47.830;-3.870;2023-07-22T08:46:48;10.57;;;9.47;;
15915;SDS011;8057;47.830;-3.870;2023-07-22T08:51:04;11.80;;;10.10;;
15915;SDS011;8057;47.830;-3.870;2023-07-22T08:55:18;11.17;;;9.50;;
15915;SDS011;8057;47.830;-3.870;2023-07-22T08:59:27;12.27;;;10.93;;
15915;SDS011;8057;47.830;-3.870;2023-07-22T09:03:38;12.60;;;10.23;;
15915;SDS011;8057;47.830;-3.870;2023-07-22T09:07:49;11.50;;;10.47;;
15915;SDS011;8057;47.830;-3.870;2023-07-22T09:12:00;11.00;;;10.00;;
15915;SDS011;8057;47.830;-3.870;2023-07-22T09:16:10;12.37;;;11.13;;
15915;SDS011;8057;47.830;-3.870;2023-07-22T09:20:21;11.27;;;10.17;;
15915;SDS011;8057;47.830;-3.870;2023-07-22T09:24:31;11.27;;;10.17;;
15915;SDS011;8057;47.830;-3.870;2023-07-22T09:28:51;11.63;;;10.47;;
15915;SDS011;8057;47.830;-3.870;2023-07-22T09:33:02;12.47;;;11.30;;
15915;SDS011;8057;47.830;-3.870;2023-07-22T09:37:12;11.83;;;10.30;;
15915;SDS011;8057;47.830;-3.870;2023-07-22T09:41:21;10.97;;;9.87;;
15915;SDS011;8057;47.830;-3.870;2023-07-22T09:45:38;11.20;;;10.20;;
15915;SDS011;8057;47.830;-3.870;2023-07-22T09:49:48;11.47;;;10.23;;
15915;SDS011;8057;47.830;-3.870;2023-07-22T09:53:59;11.60;;;10.40;;
15915;SDS011;8057;47.830;-3.870;2023-07-22T09:58:09;12.47;;;10.53;;
15915;SDS011;8057;47.830;-3.870;2023-07-22T10:02:23;11.40;;;10.30;;
15915;SDS011;8057;47.830;-3.870;2023-07-22T10:06:33;11.50;;;10.40;;
15915;SDS011;8057;47.830;-3.870;2023-07-22T10:10:42;11.77;;;10.73;;
15915;SDS011;8057;47.830;-3.870;2023-07-22T10:14:53;11.43;;;10.33;;
15915;SDS011;8057;47.830;-3.870;2023-07-22T10:19:04;10.83;;;9.73;;
15915;SDS011;8057;47.830;-3.870;2023-07-22T10:23:14;10.37;;;9.47;;
15915;SDS011;8057;47.830;-3.870;2023-07-22T10:27:23;13.27;;;12.07;;
15915;SDS011;8057;47.830;-3.870;2023-07-22T10:31:34;11.57;;;9.70;;
15915;SDS011;8057;47.830;-3.870;2023-07-22T10:36:01;12.07;;;10.83;;
15915;SDS011;8057;47.830;-3.870;2023-07-22T10:40:18;10.70;;;9.60;;
15915;SDS011;8057;47.830;-3.870;2023-07-22T10:44:30;11.10;;;9.97;;
15915;SDS011;8057;47.830;-3.870;2023-07-22T10:48:40;11.00;;;10.00;;
15915;SDS011;8057;47.830;-3.870;2023-07-22T10:52:52;11.27;;;10.17;;
15915;SDS011;8057;47.830;-3.870;2023-07-22T10:57:22;10.87;;;9.57;;
15915;SDS011;8057;47.830;-3.870;2023-07-22T11:01:36;11.37;;;10.27;;
15915;SDS011;8057;47.830;-3.870;2023-07-22T11:05:47;11.20;;;10.20;;
15915;SDS011;8057;47.830;-3.870;2023-07-22T11:09:59;11.13;;;10.03;;
15915;SDS011;8057;47.830;-3.870;2023-07-22T11:14:23;11.33;;;10.30;;
15915;SDS011;8057;47.830;-3.870;2023-07-22T11:18:37;12.03;;;10.93;;
15915;SDS011;8057;47.830;-3.870;2023-07-22T11:22:47;11.63;;;10.63;;
15915;SDS011;8057;47.830;-3.870;2023-07-22T11:27:01;10.63;;;9.73;;
15915;SDS011;8057;47.830;-3.870;2023-07-22T11:31:12;11.53;;;10.53;;
15915;SDS011;8057;47.830;-3.870;2023-07-22T11:35:21;11.10;;;10.00;;
15915;SDS011;8057;47.830;-3.870;2023-07-22T11:39:30;11.60;;;10.40;;
15915;SDS011;8057;47.830;-3.870;2023-07-22T11:43:41;11.40;;;10.37;;
15915;SDS011;8057;47.830;-3.870;2023-07-22T11:47:50;11.73;;;10.73;;
15915;SDS011;8057;47.830;-3.870;2023-07-22T11:52:00;11.37;;;10.40;;
15915;SDS011;8057;47.830;-3.870;2023-07-22T11:56:11;11.43;;;10.53;;
15915;SDS011;8057;47.830;-3.870;2023-07-22T12:00:22;10.33;;;9.43;;
15915;SDS011;8057;47.830;-3.870;2023-07-22T12:04:31;12.10;;;11.03;;
15915;SDS011;8057;47.830;-3.870;2023-07-22T12:08:45;10.87;;;9.97;;
15915;SDS011;8057;47.830;-3.870;2023-07-22T12:12:55;11.53;;;10.43;;
15915;SDS011;8057;47.830;-3.870;2023-07-22T12:17:10;11.17;;;10.20;;
15915;SDS011;8057;47.830;-3.870;2023-07-22T12:21:19;10.80;;;9.83;;
15915;SDS011;8057;47.830;-3.870;2023-07-22T12:25:29;12.07;;;10.87;;
15915;SDS011;8057;47.830;-3.870;2023-07-22T12:29:39;11.60;;;10.60;;
15915;SDS011;8057;47.830;-3.870;2023-07-22T12:33:50;12.10;;;10.90;;
15915;SDS011;8057;47.830;-3.870;2023-07-22T12:37:59;10.90;;;9.90;;
15915;SDS011;8057;47.830;-3.870;2023-07-22T12:42:08;10.93;;;10.07;;
15915;SDS011;8057;47.830;-3.870;2023-07-22T12:46:17;13.70;;;10.87;;
15915;SDS011;8057;47.830;-3.870;2023-07-22T12:50:28;11.50;;;10.50;;
15915;SDS011;8057;47.830;-3.870;2023-07-22T12:54:38;11.03;;;10.13;;
15915;SDS011;8057;47.830;-3.870;2023-07-22T12:58:47;11.07;;;10.07;;
15915;SDS011;8057;47.830;-3.870;2023-07-22T13:02:57;11.53;;;10.43;;
15915;SDS011;8057;47.830;-3.870;2023-07-22T13:07:08;10.83;;;9.93;;
15915;SDS011;8057;47.830;-3.870;2023-07-22T13:11:17;11.73;;;10.57;;
15915;SDS011;8057;47.830;-3.870;2023-07-22T13:15:26;10.60;;;9.70;;
15915;SDS011;8057;47.830;-3.870;2023-07-22T13:19:35;10.90;;;9.83;;
15915;SDS011;8057;47.830;-3.870;2023-07-22T13:23:46;10.33;;;9.50;;
15915;SDS011;8057;47.830;-3.870;2023-07-22T13:27:55;11.30;;;10.10;;
15915;SDS011;8057;47.830;-3.870;2023-07-22T13:32:05;11.47;;;10.43;;
15915;SDS011;8057;47.830;-3.870;2023-07-22T13:36:15;10.27;;;9.30;;
15915;SDS011;8057;47.830;-3.870;2023-07-22T13:40:31;10.43;;;9.13;;
15915;SDS011;8057;47.830;-3.870;2023-07-22T13:44:40;9.13;;;8.37;;
15915;SDS011;8057;47.830;-3.870;2023-07-22T13:48:49;9.90;;;8.90;;
15915;SDS011;8057;47.830;-3.870;2023-07-22T13:52:58;9.73;;;8.83;;
15915;SDS011;8057;47.830;-3.870;2023-07-22T13:57:08;10.93;;;9.27;;
15915;SDS011;8057;47.830;-3.870;2023-07-22T14:01:18;9.33;;;8.60;;
15915;SDS011;8057;47.830;-3.870;2023-07-22T14:05:27;11.90;;;8.77;;
15915;SDS011;8057;47.830;-3.870;2023-07-22T14:09:36;11.50;;;10.30;;
15915;SDS011;8057;47.830;-3.870;2023-07-22T14:13:47;11.30;;;10.13;;
15915;SDS011;8057;47.830;-3.870;2023-07-22T14:17:58;12.33;;;9.97;;
15915;SDS011;8057;47.830;-3.870;2023-07-22T14:22:07;11.23;;;10.13;;
15915;SDS011;8057;47.830;-3.870;2023-07-22T14:26:17;11.53;;;10.43;;
15915;SDS011;8057;47.830;-3.870;2023-07-22T14:30:28;11.13;;;10.03;;
15915;SDS011;8057;47.830;-3.870;2023-07-22T14:34:37;11.57;;;10.50;;
15915;SDS011;8057;47.830;-3.870;2023-07-22T14:38:46;11.93;;;9.30;;
15915;SDS011;8057;47.830;-3.870;2023-07-22T14:42:55;11.00;;;9.97;;
15915;SDS011;8057;47.830;-3.870;2023-07-22T14:47:06;11.47;;;10.30;;
15915;SDS011;8057;47.830;-3.870;2023-07-22T14:51:16;11.00;;;9.83;;
15915;SDS011;8057;47.830;-3.870;2023-07-22T14:55:25;11.33;;;10.07;;
15915;SDS011;8057;47.830;-3.870;2023-07-22T14:59:34;11.13;;;10.00;;
15915;SDS011;8057;47.830;-3.870;2023-07-22T15:03:45;12.20;;;10.97;;
15915;SDS011;8057;47.830;-3.870;2023-07-22T15:07:54;12.00;;;10.60;;
15915;SDS011;8057;47.830;-3.870;2023-07-22T15:12:04;12.73;;;11.53;;
15915;SDS011;8057;47.830;-3.870;2023-07-22T15:16:14;12.90;;;11.50;;
15915;SDS011;8057;47.830;-3.870;2023-07-22T15:20:25;13.00;;;11.57;;
15915;SDS011;8057;47.830;-3.870;2023-07-22T15:24:34;12.50;;;11.20;;
15915;SDS011;8057;47.830;-3.870;2023-07-22T15:28:43;12.90;;;11.57;;
15915;SDS011;8057;47.830;-3.870;2023-07-22T15:32:53;12.60;;;11.33;;
15915;SDS011;8057;47.830;-3.870;2023-07-22T15:37:04;14.83;;;11.23;;
15915;SDS011;8057;47.830;-3.870;2023-07-22T15:41:14;11.80;;;10.57;;
15915;SDS011;8057;47.830;-3.870;2023-07-22T15:45:23;11.90;;;10.70;;
15915;SDS011;8057;47.830;-3.870;2023-07-22T15:49:33;12.97;;;10.63;;
15915;SDS011;8057;47.830;-3.870;2023-07-22T15:53:44;12.77;;;11.57;;
15915;SDS011;8057;47.830;-3.870;2023-07-22T15:58:04;11.33;;;9.70;;
15915;SDS011;8057;47.830;-3.870;2023-07-22T16:02:14;12.43;;;10.10;;
15915;SDS011;8057;47.830;-3.870;2023-07-22T16:06:56;11.03;;;9.80;;
15915;SDS011;8057;47.830;-3.870;2023-07-22T16:11:17;11.77;;;10.47;;
15915;SDS011;8057;47.830;-3.870;2023-07-22T16:15:26;11.20;;;10.07;;
15915;SDS011;8057;47.830;-3.870;2023-07-22T16:25:14;12.73;;;9.50;;
15915;SDS011;8057;47.830;-3.870;2023-07-22T16:29:28;10.67;;;9.57;;
15915;SDS011;8057;47.830;-3.870;2023-07-22T16:33:37;11.43;;;9.40;;
15915;SDS011;8057;47.830;-3.870;2023-07-22T16:37:48;11.20;;;9.57;;
15915;SDS011;8057;47.830;-3.870;2023-07-22T16:41:58;10.40;;;9.40;;
15915;SDS011;8057;47.830;-3.870;2023-07-22T16:46:13;10.13;;;9.13;;
15915;SDS011;8057;47.830;-3.870;2023-07-22T16:50:34;10.70;;;9.47;;
15915;SDS011;8057;47.830;-3.870;2023-07-22T16:54:44;15.00;;;9.40;;
15915;SDS011;8057;47.830;-3.870;2023-07-22T16:58:53;11.00;;;8.77;;
15915;SDS011;8057;47.830;-3.870;2023-07-22T17:03:09;12.27;;;9.17;;
15915;SDS011;8057;47.830;-3.870;2023-07-22T17:07:21;10.23;;;9.03;;
15915;SDS011;8057;47.830;-3.870;2023-07-22T17:11:32;12.40;;;9.77;;
15915;SDS011;8057;47.830;-3.870;2023-07-22T17:15:42;13.13;;;9.77;;
15915;SDS011;8057;47.830;-3.870;2023-07-22T17:19:54;11.70;;;9.47;;
15915;SDS011;8057;47.830;-3.870;2023-07-22T17:24:07;10.70;;;8.80;;
15915;SDS011;8057;47.830;-3.870;2023-07-22T17:28:17;13.73;;;9.20;;
15915;SDS011;8057;47.830;-3.870;2023-07-22T17:32:27;13.90;;;8.33;;
15915;SDS011;8057;47.830;-3.870;2023-07-22T17:36:40;15.00;;;9.57;;
15915;SDS011;8057;47.830;-3.870;2023-07-22T17:40:51;10.33;;;8.53;;
15915;SDS011;8057;47.830;-3.870;2023-07-22T17:45:02;11.13;;;8.83;;
15915;SDS011;8057;47.830;-3.870;2023-07-22T17:49:13;13.83;;;10.30;;
15915;SDS011;8057;47.830;-3.870;2023-07-22T17:53:26;12.43;;;8.97;;
15915;SDS011;8057;47.830;-3.870;2023-07-22T17:57:37;12.70;;;9.03;;
15915;SDS011;8057;47.830;-3.870;2023-07-22T18:01:47;11.10;;;9.20;;
15915;SDS011;8057;47.830;-3.870;2023-07-22T18:05:57;14.13;;;8.83;;
15915;SDS011;8057;47.830;-3.870;2023-07-22T18:10:11;11.73;;;8.90;;
15915;SDS011;8057;47.830;-3.870;2023-07-22T18:14:20;12.70;;;9.13;;
15915;SDS011;8057;47.830;-3.870;2023-07-22T18:18:30;15.60;;;9.27;;
15915;SDS011;8057;47.830;-3.870;2023-07-22T18:22:40;12.83;;;9.60;;
15915;SDS011;8057;47.830;-3.870;2023-07-22T18:26:51;11.40;;;9.20;;
15915;SDS011;8057;47.830;-3.870;2023-07-22T18:31:02;12.57;;;10.23;;
15915;SDS011;8057;47.830;-3.870;2023-07-22T18:35:14;13.30;;;10.00;;
15915;SDS011;8057;47.830;-3.870;2023-07-22T18:39:25;15.13;;;9.93;;
15915;SDS011;8057;47.830;-3.870;2023-07-22T18:43:38;16.13;;;10.27;;
15915;SDS011;8057;47.830;-3.870;2023-07-22T18:47:51;15.03;;;10.40;;
15915;SDS011;8057;47.830;-3.870;2023-07-22T18:52:02;13.83;;;8.63;;
15915;SDS011;8057;47.830;-3.870;2023-07-22T18:56:16;16.50;;;10.40;;
15915;SDS011;8057;47.830;-3.870;2023-07-22T19:04:46;14.37;;;9.17;;
15915;SDS011;8057;47.830;-3.870;2023-07-22T19:08:58;17.00;;;9.50;;
15915;SDS011;8057;47.830;-3.870;2023-07-22T19:13:10;14.97;;;9.77;;
15915;SDS011;8057;47.830;-3.870;2023-07-22T19:17:25;14.27;;;9.47;;
15915;SDS011;8057;47.830;-3.870;2023-07-22T19:21:38;16.03;;;9.53;;
15915;SDS011;8057;47.830;-3.870;2023-07-22T19:25:48;16.07;;;9.80;;
15915;SDS011;8057;47.830;-3.870;2023-07-22T19:30:01;15.67;;;9.87;;
15915;SDS011;8057;47.830;-3.870;2023-07-22T19:34:13;15.47;;;9.13;;
15915;SDS011;8057;47.830;-3.870;2023-07-22T19:38:23;16.30;;;10.33;;
15915;SDS011;8057;47.830;-3.870;2023-07-22T19:42:47;14.60;;;9.83;;
15915;SDS011;8057;47.830;-3.870;2023-07-22T19:46:57;13.40;;;9.97;;
15915;SDS011;8057;47.830;-3.870;2023-07-22T19:55:25;17.50;;;10.10;;
15915;SDS011;8057;47.830;-3.870;2023-07-22T19:59:35;13.67;;;11.17;;
15915;SDS011;8057;47.830;-3.870;2023-07-22T20:03:45;18.77;;;11.50;;
15915;SDS011;8057;47.830;-3.870;2023-07-22T20:07:55;15.23;;;10.87;;
15915;SDS011;8057;47.830;-3.870;2023-07-22T20:12:05;17.37;;;10.17;;
15915;SDS011;8057;47.830;-3.870;2023-07-22T20:16:18;16.37;;;9.53;;
15915;SDS011;8057;47.830;-3.870;2023-07-22T20:20:30;19.63;;;9.20;;
15915;SDS011;8057;47.830;-3.870;2023-07-22T20:24:49;17.67;;;9.20;;
15915;SDS011;8057;47.830;-3.870;2023-07-22T20:29:00;19.40;;;9.27;;
15915;SDS011;8057;47.830;-3.870;2023-07-22T20:33:11;16.47;;;9.83;;
15915;SDS011;8057;47.830;-3.870;2023-07-22T20:37:35;15.97;;;9.67;;
15915;SDS011;8057;47.830;-3.870;2023-07-22T20:41:47;16.60;;;10.07;;
15915;SDS011;8057;47.830;-3.870;2023-07-22T20:46:00;18.77;;;10.10;;
15915;SDS011;8057;47.830;-3.870;2023-07-22T20:50:11;14.93;;;9.40;;
15915;SDS011;8057;47.830;-3.870;2023-07-22T20:54:21;18.27;;;10.63;;
15915;SDS011;8057;47.830;-3.870;2023-07-22T20:58:32;16.60;;;10.30;;
15915;SDS011;8057;47.830;-3.870;2023-07-22T21:02:41;17.53;;;9.70;;
15915;SDS011;8057;47.830;-3.870;2023-07-22T21:06:53;18.00;;;10.30;;
15915;SDS011;8057;47.830;-3.870;2023-07-22T21:11:03;16.07;;;9.27;;
15915;SDS011;8057;47.830;-3.870;2023-07-22T21:15:15;17.70;;;10.57;;
15915;SDS011;8057;47.830;-3.870;2023-07-22T21:19:24;20.00;;;10.50;;
15915;SDS011;8057;47.830;-3.870;2023-07-22T21:23:33;17.80;;;11.03;;
15915;SDS011;8057;47.830;-3.870;2023-07-22T21:27:43;20.77;;;10.60;;
15915;SDS011;8057;47.830;-3.870;2023-07-22T21:31:58;20.87;;;11.40;;
15915;SDS011;8057;47.830;-3.870;2023-07-22T21:36:08;22.73;;;11.73;;
15915;SDS011;8057;47.830;-3.870;2023-07-22T21:40:18;27.67;;;11.60;;
15915;SDS011;8057;47.830;-3.870;2023-07-22T21:44:28;23.50;;;11.40;;
15915;SDS011;8057;47.830;-3.870;2023-07-22T21:48:42;22.73;;;10.83;;
15915;SDS011;8057;47.830;-3.870;2023-07-22T21:52:52;24.77;;;12.10;;
15915;SDS011;8057;47.830;-3.870;2023-07-22T21:57:03;25.53;;;12.00;;
15915;SDS011;8057;47.830;-3.870;2023-07-22T22:01:13;25.53;;;10.83;;
15915;SDS011;8057;47.830;-3.870;2023-07-22T22:05:25;25.50;;;11.70;;
15915;SDS011;8057;47.830;-3.870;2023-07-22T22:09:35;26.40;;;11.53;;
15915;SDS011;8057;47.830;-3.870;2023-07-22T22:13:45;20.80;;;10.90;;
15915;SDS011;8057;47.830;-3.870;2023-07-22T22:17:56;22.37;;;11.13;;
15915;SDS011;8057;47.830;-3.870;2023-07-22T22:22:10;23.20;;;12.07;;
15915;SDS011;8057;47.830;-3.870;2023-07-22T22:26:19;23.80;;;11.80;;
15915;SDS011;8057;47.830;-3.870;2023-07-22T22:30:29;24.17;;;11.83;;
15915;SDS011;8057;47.830;-3.870;2023-07-22T22:34:38;23.03;;;11.17;;
15915;SDS011;8057;47.830;-3.870;2023-07-22T22:38:53;22.80;;;11.37;;
15915;SDS011;8057;47.830;-3.870;2023-07-22T22:43:03;25.27;;;11.53;;
15915;SDS011;8057;47.830;-3.870;2023-07-22T22:47:16;26.33;;;12.60;;
15915;SDS011;8057;47.830;-3.870;2023-07-22T22:51:26;28.93;;;12.20;;
15915;SDS011;8057;47.830;-3.870;2023-07-22T22:55:40;28.07;;;12.20;;
15915;SDS011;8057;47.830;-3.870;2023-07-22T22:59:58;24.60;;;12.93;;
15915;SDS011;8057;47.830;-3.870;2023-07-22T23:04:07;22.87;;;13.60;;
15915;SDS011;8057;47.830;-3.870;2023-07-22T23:08:24;27.27;;;12.63;;
15915;SDS011;8057;47.830;-3.870;2023-07-22T23:12:38;27.17;;;13.30;;
15915;SDS011;8057;47.830;-3.870;2023-07-22T23:16:47;24.87;;;12.33;;
15915;SDS011;8057;47.830;-3.870;2023-07-22T23:20:58;28.27;;;13.13;;
15915;SDS011;8057;47.830;-3.870;2023-07-22T23:25:07;30.77;;;13.20;;
15915;SDS011;8057;47.830;-3.870;2023-07-22T23:29:18;25.73;;;12.77;;
15915;SDS011;8057;47.830;-3.870;2023-07-22T23:33:28;32.07;;;13.20;;
15915;SDS011;8057;47.830;-3.870;2023-07-22T23:37:39;26.53;;;12.80;;
15915;SDS011;8057;47.830;-3.870;2023-07-22T23:41:48;29.17;;;14.07;;
15915;SDS011;8057;47.830;-3.870;2023-07-22T23:46:03;29.57;;;13.50;;
15915;SDS011;8057;47.830;-3.870;2023-07-22T23:50:14;26.50;;;13.53;;
15915;SDS011;8057;47.830;-3.870;2023-07-22T23:54:24;30.90;;;14.23;;
15915;SDS011;8057;47.830;-3.870;2023-07-22T23:58:35;31.90;;;15.30;;
